Time;durP1;ratioP1;P1;durP2;ratioP2;P2;SDS_P1;SDS_P2;PMS_P1;PMS_P2;Temp;Humidity;BMP_temperature;BMP_pressure;BME280_temperature;BME280_humidity;BME280_pressure;Samples;Min_cycle;Max_cycle;Signal;HPM_P1;HPM_P2
2022/11/19 00:04:50;;;;;;;12.38;6.50;;;8.70;99.60;;;;;;10444892;28;20100;-60
2022/11/19 00:09:50;;;;;;;10.90;6.68;;;8.70;99.60;;;;;;10437417;28;20021;-60
2022/11/19 00:14:51;;;;;;;11.88;6.47;;;8.70;99.60;;;;;;10454442;28;20497;-60
2022/11/19 00:19:52;;;;;;;10.80;6.00;;;8.70;99.50;;;;;;10443176;28;20044;-61
2022/11/19 00:24:52;;;;;;;11.20;6.15;;;8.70;99.50;;;;;;10443806;28;20048;-61
2022/11/19 00:29:53;;;;;;;11.65;6.15;;;8.70;99.50;;;;;;10427787;28;20124;-61
2022/11/19 00:34:54;;;;;;;10.25;6.13;;;8.70;99.50;;;;;;10443150;28;20441;-61
2022/11/19 00:39:55;;;;;;;10.88;6.00;;;8.70;99.40;;;;;;10447018;28;20048;-61
2022/11/19 00:44:56;;;;;;;10.02;6.15;;;8.70;99.40;;;;;;10443429;28;20596;-63
2022/11/19 00:49:56;;;;;;;9.90;5.65;;;8.60;99.40;;;;;;10438003;28;20070;-60
2022/11/19 00:54:57;;;;;;;9.55;6.00;;;8.60;99.40;;;;;;10442770;28;20014;-60
2022/11/19 00:59:57;;;;;;;9.93;5.93;;;8.60;99.30;;;;;;10442693;28;20417;-64
2022/11/19 01:04:58;;;;;;;9.95;5.95;;;8.50;99.30;;;;;;10442097;28;20033;-59
2022/11/19 01:09:59;;;;;;;11.63;6.05;;;8.60;99.30;;;;;;10453797;28;20036;-60
2022/11/19 01:14:59;;;;;;;10.23;5.70;;;8.50;99.20;;;;;;10449743;28;20112;-60
2022/11/19 01:20:00;;;;;;;9.68;5.53;;;8.50;99.20;;;;;;10458779;28;20133;-59
2022/11/19 01:25:01;;;;;;;10.90;5.72;;;8.50;99.20;;;;;;10441964;28;20036;-60
2022/11/19 01:30:03;;;;;;;10.02;5.43;;;8.50;99.10;;;;;;10456187;28;20037;-61
2022/11/19 01:35:04;;;;;;;9.45;5.63;;;8.50;99.10;;;;;;10450129;28;20033;-60
2022/11/19 01:40:06;;;;;;;9.05;5.43;;;8.50;99.00;;;;;;10472183;28;20041;-60
2022/11/19 01:45:07;;;;;;;7.30;4.95;;;8.40;99.00;;;;;;10441790;28;20048;-60
2022/11/19 01:50:08;;;;;;;10.90;5.78;;;8.40;99.00;;;;;;10444406;28;20028;-60
2022/11/19 01:55:09;;;;;;;9.60;5.10;;;8.40;98.90;;;;;;10455164;28;20021;-60
2022/11/19 02:00:11;;;;;;;8.38;5.18;;;8.40;98.90;;;;;;10436617;28;20088;-61
2022/11/19 02:05:12;;;;;;;10.23;5.22;;;8.40;98.80;;;;;;10432096;28;20026;-60
2022/11/19 02:10:13;;;;;;;7.97;5.00;;;8.40;98.80;;;;;;10458646;28;20031;-61
2022/11/19 02:15:37;;;;;;;8.55;4.85;;;8.40;98.80;;;;;;10454139;28;20478;-60
2022/11/19 02:20:53;;;;;;;8.95;4.72;;;8.40;98.60;;;;;;10441267;28;20657;-60
2022/11/19 02:26:19;;;;;;;7.60;4.53;;;8.30;98.70;;;;;;10452648;28;20060;-61
2022/11/19 02:31:29;;;;;;;9.35;4.80;;;8.30;98.60;;;;;;10444582;28;20406;-60
2022/11/19 02:36:47;;;;;;;7.07;4.05;;;8.30;98.60;;;;;;10443822;28;20024;-59
2022/11/19 02:42:26;;;;;;;8.95;4.68;;;8.30;98.40;;;;;;10456780;28;20025;-60
2022/11/19 02:47:38;;;;;;;7.25;3.78;;;8.30;98.20;;;;;;10435906;28;20013;-59
2022/11/19 02:52:40;;;;;;;6.47;3.67;;;8.20;98.40;;;;;;10447185;28;20044;-67
2022/11/19 02:57:49;;;;;;;7.43;3.80;;;8.20;98.40;;;;;;10429225;28;20037;-65
2022/11/19 03:08:32;;;;;;;5.68;3.35;;;8.20;97.60;;;;;;10366181;28;19908;-60
2022/11/19 03:19:25;;;;;;;5.03;2.97;;;8.10;98.00;;;;;;10434800;28;20041;-60
2022/11/19 03:24:36;;;;;;;6.53;3.17;;;8.10;98.20;;;;;;10443845;28;20036;-61
2022/11/19 03:29:41;;;;;;;4.97;3.20;;;8.10;98.10;;;;;;10459320;28;20493;-60
2022/11/19 03:34:45;;;;;;;5.90;3.33;;;8.10;98.30;;;;;;10445407;28;20036;-60
2022/11/19 03:39:47;;;;;;;5.82;3.15;;;8.00;98.20;;;;;;10440612;28;20025;-61
2022/11/19 03:44:59;;;;;;;6.68;2.60;;;8.10;98.20;;;;;;10444962;28;20029;-67
2022/11/19 03:50:28;;;;;;;4.50;2.80;;;8.10;98.10;;;;;;10447958;28;20368;-64
2022/11/19 03:55:36;;;;;;;5.07;3.22;;;8.00;98.10;;;;;;10419904;28;20378;-61
2022/11/19 04:00:37;;;;;;;5.05;2.90;;;8.00;98.00;;;;;;10444759;28;20075;-68
2022/11/19 04:05:38;;;;;;;4.68;2.85;;;8.30;98.10;;;;;;10444186;28;20536;-64
2022/11/19 04:10:38;;;;;;;6.40;3.05;;;8.10;98.00;;;;;;10443515;28;20067;-60
2022/11/19 04:15:39;;;;;;;5.18;2.97;;;7.90;97.90;;;;;;10448551;28;20029;-60
2022/11/19 04:20:42;;;;;;;4.63;2.50;;;8.10;97.90;;;;;;10443502;28;20057;-67
2022/11/19 04:25:46;;;;;;;4.28;2.58;;;7.90;97.90;;;;;;10433595;28;20040;-61
2022/11/19 04:30:47;;;;;;;4.65;2.90;;;7.80;97.80;;;;;;10448227;28;20025;-61
2022/11/19 04:35:47;;;;;;;4.93;2.50;;;7.80;97.80;;;;;;10434136;28;20021;-60
2022/11/19 04:40:48;;;;;;;4.68;3.05;;;7.80;97.80;;;;;;10433733;28;20033;-60
2022/11/19 04:45:49;;;;;;;6.15;2.92;;;7.80;97.80;;;;;;10442744;28;20213;-60
2022/11/19 04:50:50;;;;;;;5.45;3.20;;;7.80;97.80;;;;;;10445807;28;20032;-60
2022/11/19 04:55:50;;;;;;;5.70;3.17;;;7.70;97.70;;;;;;10442312;28;20032;-59
2022/11/19 05:00:51;;;;;;;5.03;2.92;;;7.70;97.70;;;;;;10442866;28;20421;-61
2022/11/19 05:05:52;;;;;;;5.45;2.63;;;7.90;97.70;;;;;;10442349;28;20021;-60
2022/11/19 05:10:53;;;;;;;5.38;2.97;;;7.80;97.70;;;;;;10447998;28;20481;-60
2022/11/19 05:15:53;;;;;;;5.82;2.90;;;7.80;97.60;;;;;;10444148;28;20021;-59
2022/11/19 05:20:54;;;;;;;5.47;2.78;;;7.60;97.50;;;;;;10441998;28;20065;-61
2022/11/19 05:25:55;;;;;;;5.20;2.83;;;7.60;97.40;;;;;;10446579;28;20032;-60
2022/11/19 05:30:56;;;;;;;4.45;2.47;;;7.60;97.40;;;;;;10450744;28;20041;-65
2022/11/19 05:35:56;;;;;;;5.22;2.90;;;7.60;97.40;;;;;;10437095;28;20128;-60
2022/11/19 05:40:57;;;;;;;5.00;2.80;;;7.50;97.30;;;;;;10427871;28;20075;-61
2022/11/19 05:46:00;;;;;;;4.03;2.75;;;7.50;97.30;;;;;;10438135;28;20021;-61
2022/11/19 05:51:00;;;;;;;5.28;2.78;;;7.50;97.50;;;;;;10435526;28;20506;-61
2022/11/19 05:56:01;;;;;;;7.47;2.90;;;7.50;97.20;;;;;;10448793;28;20040;-60
2022/11/19 06:01:02;;;;;;;6.63;3.38;;;7.50;97.10;;;;;;10447834;28;20060;-59
2022/11/19 06:06:03;;;;;;;6.55;2.95;;;7.40;97.10;;;;;;10447048;28;20588;-60
2022/11/19 06:11:04;;;;;;;5.32;3.00;;;7.40;97.00;;;;;;10470013;28;20035;-61
2022/11/19 06:16:05;;;;;;;6.72;3.25;;;7.40;97.00;;;;;;10448295;28;20025;-65
2022/11/19 06:21:06;;;;;;;5.80;3.42;;;7.40;96.90;;;;;;10461590;28;20399;-61
2022/11/19 06:26:08;;;;;;;5.03;2.90;;;7.50;96.90;;;;;;10454722;28;20021;-64
2022/11/19 06:31:08;;;;;;;4.63;2.78;;;7.30;96.80;;;;;;10448065;28;20500;-61
2022/11/19 06:36:09;;;;;;;5.80;2.88;;;7.30;96.80;;;;;;10447377;28;20033;-68
2022/11/19 06:41:10;;;;;;;4.32;2.65;;;7.30;96.70;;;;;;10455198;28;20025;-68
2022/11/19 06:46:12;;;;;;;4.55;2.83;;;7.20;96.70;;;;;;10447028;28;20112;-65
2022/11/19 06:51:12;;;;;;;4.35;2.80;;;7.40;96.70;;;;;;10418513;28;20378;-65
2022/11/19 06:56:13;;;;;;;6.28;2.95;;;7.20;96.60;;;;;;10435658;28;20456;-66
2022/11/19 07:01:14;;;;;;;5.45;3.03;;;7.30;96.60;;;;;;10444111;28;20120;-60
2022/11/19 07:06:14;;;;;;;6.03;2.97;;;7.20;96.50;;;;;;10431847;28;20023;-67
2022/11/19 07:11:25;;;;;;;6.72;2.88;;;7.10;96.50;;;;;;10449801;28;20681;-60
2022/11/19 07:16:28;;;;;;;6.43;3.40;;;7.10;96.50;;;;;;10427744;28;20117;-60
2022/11/19 07:21:29;;;;;;;5.65;3.30;;;7.10;96.40;;;;;;10431309;28;20064;-60
2022/11/19 07:26:31;;;;;;;6.72;3.70;;;7.10;96.40;;;;;;10364810;28;20046;-60
2022/11/19 07:31:33;;;;;;;5.82;3.33;;;7.00;96.30;;;;;;10372280;28;20062;-64
2022/11/19 07:36:34;;;;;;;6.93;3.60;;;7.10;96.30;;;;;;10338910;28;20036;-60
2022/11/19 07:46:54;;;;;;;6.28;3.50;;;7.00;96.20;;;;;;10346843;28;20049;-60
2022/11/19 07:51:55;;;;;;;7.05;3.63;;;7.00;96.20;;;;;;10357865;28;20500;-60
2022/11/19 07:56:55;;;;;;;7.43;3.60;;;8.20;96.50;;;;;;10350604;28;20090;-60
2022/11/19 08:01:56;;;;;;;5.78;3.92;;;7.00;96.10;;;;;;10347103;28;20365;-59
2022/11/19 08:06:57;;;;;;;7.82;3.45;;;7.00;96.10;;;;;;10349225;28;20021;-59
2022/11/19 08:11:57;;;;;;;6.07;3.50;;;7.00;96.00;;;;;;10338713;28;20427;-60
2022/11/19 08:22:17;;;;;;;7.78;4.20;;;7.40;96.00;;;;;;10339843;28;20400;-60
2022/11/19 08:27:18;;;;;;;6.78;3.85;;;7.00;95.90;;;;;;10340592;28;20144;-61
2022/11/19 08:32:19;;;;;;;6.57;3.88;;;7.00;95.90;;;;;;10353772;28;20075;-69
2022/11/19 08:37:19;;;;;;;6.78;3.92;;;7.10;95.90;;;;;;10321425;28;20025;-61
2022/11/19 08:47:39;;;;;;;9.70;4.55;;;7.40;95.80;;;;;;10347791;28;20037;-60
2022/11/19 08:52:40;;;;;;;6.78;4.15;;;7.10;95.70;;;;;;10334614;28;20215;-61
2022/11/19 08:57:41;;;;;;;7.97;4.32;;;7.30;96.00;;;;;;10325403;28;20525;-61
2022/11/19 09:02:42;;;;;;;8.82;4.53;;;7.50;95.80;;;;;;10327891;28;20405;-62
2022/11/19 09:07:42;;;;;;;8.10;4.00;;;8.40;95.90;;;;;;10341426;28;20032;-61
2022/11/19 09:12:43;;;;;;;8.65;4.60;;;7.20;95.60;;;;;;10346326;28;20439;-61
2022/11/19 09:17:44;;;;;;;6.30;3.33;;;7.40;95.70;;;;;;10337990;28;20164;-61
2022/11/19 09:22:45;;;;;;;6.13;3.55;;;7.30;95.80;;;;;;10332502;28;20648;-60
2022/11/19 09:27:45;;;;;;;7.32;3.95;;;7.50;95.80;;;;;;10341322;28;20857;-61
2022/11/19 09:32:46;;;;;;;9.13;4.13;;;7.30;95.80;;;;;;10335271;28;20021;-60
2022/11/19 09:37:47;;;;;;;8.57;3.83;;;7.30;95.80;;;;;;10332212;28;20140;-60
2022/11/19 09:43:16;;;;;;;7.18;3.33;;;7.40;95.80;;;;;;10334442;28;20530;-61
2022/11/19 09:48:30;;;;;;;5.95;3.35;;;7.40;95.70;;;;;;10359703;28;20029;-65
2022/11/19 09:53:39;;;;;;;7.38;3.40;;;7.40;95.70;;;;;;10347741;28;20319;-61
2022/11/19 09:58:44;;;;;;;6.73;3.93;;;7.40;95.80;;;;;;10338041;28;20030;-61
2022/11/19 10:03:50;;;;;;;6.80;4.03;;;7.50;95.70;;;;;;10334887;28;20934;-62
2022/11/19 10:09:18;;;;;;;7.00;3.90;;;7.50;95.80;;;;;;10343410;28;20137;-71
2022/11/19 10:14:25;;;;;;;8.80;3.70;;;7.50;95.60;;;;;;10358483;28;20313;-61
2022/11/19 10:20:04;;;;;;;6.10;3.78;;;7.50;95.70;;;;;;10358691;28;20696;-62
2022/11/19 10:25:20;;;;;;;5.65;3.45;;;7.60;95.60;;;;;;10312045;28;20106;-61
2022/11/19 10:30:25;;;;;;;5.03;3.28;;;7.60;95.70;;;;;;10349807;28;20440;-61
2022/11/19 10:35:41;;;;;;;5.90;3.25;;;7.70;95.70;;;;;;10354977;28;20112;-60
2022/11/19 10:40:50;;;;;;;6.38;3.45;;;7.60;95.50;;;;;;10355520;28;20072;-60
2022/11/19 10:45:52;;;;;;;6.75;3.67;;;7.70;95.60;;;;;;10350419;28;20028;-60
2022/11/19 10:50:55;;;;;;;7.45;3.15;;;7.70;95.60;;;;;;10346730;28;20480;-62
2022/11/19 10:56:00;;;;;;;6.40;3.40;;;7.70;95.60;;;;;;10352942;28;20110;-63
2022/11/19 11:01:02;;;;;;;6.82;3.25;;;7.70;95.60;;;;;;10324545;28;20037;-61
2022/11/19 11:06:06;;;;;;;7.03;3.40;;;7.80;95.60;;;;;;10333803;28;20033;-63
2022/11/19 11:11:07;;;;;;;5.90;3.03;;;7.80;95.60;;;;;;10340503;28;20037;-62
2022/11/19 11:16:17;;;;;;;6.65;2.97;;;7.80;95.60;;;;;;10350497;28;20493;-67
2022/11/19 11:21:37;;;;;;;5.13;3.17;;;7.80;95.60;;;;;;10349989;28;20041;-61
2022/11/19 11:26:39;;;;;;;5.55;2.83;;;7.80;95.50;;;;;;10344302;28;20047;-63
2022/11/19 11:31:42;;;;;;;5.95;3.45;;;7.80;95.70;;;;;;10352147;28;20184;-61
2022/11/19 11:36:43;;;;;;;6.25;3.00;;;7.80;95.70;;;;;;10352065;28;20342;-61
2022/11/19 11:41:49;;;;;;;6.32;3.10;;;7.80;95.60;;;;;;10362214;28;20395;-61
2022/11/19 11:47:10;;;;;;;4.07;2.67;;;7.80;95.60;;;;;;10354729;28;20073;-62
2022/11/19 11:52:10;;;;;;;7.20;2.90;;;7.80;95.60;;;;;;10353401;28;20688;-62
2022/11/19 11:57:17;;;;;;;4.28;2.67;;;8.00;95.60;;;;;;10343837;28;20025;-61
2022/11/19 12:02:31;;;;;;;5.32;2.95;;;7.90;95.50;;;;;;10341653;28;20134;-61
2022/11/19 12:08:10;;;;;;;6.70;3.00;;;7.80;95.50;;;;;;10326447;28;20650;-61
2022/11/19 12:13:32;;;;;;;5.65;2.97;;;7.90;95.50;;;;;;10317920;28;20534;-61
2022/11/19 12:19:01;;;;;;;5.82;2.88;;;7.90;95.40;;;;;;10359368;28;20037;-61
2022/11/19 12:24:40;;;;;;;6.32;3.20;;;7.90;95.50;;;;;;10354621;28;20044;-61
2022/11/19 12:29:56;;;;;;;5.87;3.27;;;7.90;95.40;;;;;;10361763;28;20869;-70
2022/11/19 12:35:28;;;;;;;4.05;2.67;;;7.90;95.50;;;;;;10347013;28;20142;-61
2022/11/19 12:40:43;;;;;;;4.68;2.83;;;7.90;95.50;;;;;;10355486;28;20147;-63
2022/11/19 12:46:02;;;;;;;5.32;2.90;;;7.90;95.60;;;;;;10347110;28;20484;-63
2022/11/19 12:51:23;;;;;;;6.18;2.58;;;8.00;95.50;;;;;;10348787;28;20032;-63
2022/11/19 12:56:34;;;;;;;4.18;2.85;;;7.90;95.40;;;;;;10354353;28;20483;-61
2022/11/19 13:01:41;;;;;;;4.85;2.83;;;7.90;95.70;;;;;;10335080;28;20457;-61
2022/11/19 13:06:47;;;;;;;3.80;2.38;;;7.60;95.50;;;;;;10352064;28;20442;-62
2022/11/19 13:11:54;;;;;;;4.43;2.70;;;7.90;95.60;;;;;;10370997;28;20029;-63
2022/11/19 13:16:57;;;;;;;7.28;2.95;;;7.90;95.60;;;;;;10352157;28;20488;-62
2022/11/19 13:22:24;;;;;;;4.60;2.75;;;8.50;95.80;;;;;;10354066;28;20512;-61
2022/11/19 13:27:28;;;;;;;6.35;3.58;;;7.90;94.70;;;;;;10354986;28;20127;-65
2022/11/19 13:32:55;;;;;;;5.88;3.28;;;7.10;92.90;;;;;;10338669;28;20021;-61
2022/11/19 13:38:04;;;;;;;7.78;2.92;;;5.60;92.30;;;;;;10352952;28;20485;-65
2022/11/19 13:48:32;;;;;;;9.52;4.00;;;4.90;93.60;;;;;;10362185;28;20033;-60
2022/11/19 13:53:42;;;;;;;16.73;3.60;;;5.30;93.10;;;;;;10352456;28;20663;-61
2022/11/19 13:58:53;;;;;;;10.38;3.45;;;5.70;93.10;;;;;;10346418;28;20634;-60
2022/11/19 14:04:30;;;;;;;16.67;3.33;;;6.10;92.80;;;;;;10353868;28;20530;-62
2022/11/19 14:09:58;;;;;;;6.72;3.42;;;6.40;92.60;;;;;;10353872;28;20179;-63
2022/11/19 14:26:21;;;;;;;9.32;3.25;;;6.90;93.00;;;;;;10355410;28;20468;-61
2022/11/19 14:31:22;;;;;;;5.72;2.72;;;7.00;93.10;;;;;;10354459;28;20155;-61
2022/11/19 14:36:31;;;;;;;7.07;2.85;;;7.10;93.10;;;;;;10352142;28;20021;-60
2022/11/19 14:41:34;;;;;;;6.55;2.90;;;7.10;93.20;;;;;;10355856;28;20300;-61
2022/11/19 14:46:36;;;;;;;6.45;2.95;;;7.20;93.30;;;;;;10322603;28;20026;-61
2022/11/19 14:51:39;;;;;;;4.68;2.50;;;7.20;93.30;;;;;;10335928;28;20036;-61
2022/11/19 14:56:44;;;;;;;6.55;2.60;;;7.20;93.40;;;;;;10326639;28;20018;-61
2022/11/19 15:02:14;;;;;;;4.38;2.25;;;7.20;93.40;;;;;;10337488;28;20107;-63
2022/11/19 15:07:24;;;;;;;5.43;2.95;;;7.20;93.40;;;;;;10333826;28;20473;-60
2022/11/19 15:12:43;;;;;;;5.93;2.60;;;7.20;93.60;;;;;;10333072;28;20030;-60
2022/11/19 15:18:04;;;;;;;;;;;7.30;93.60;;;;;;10349505;28;20460;-72
2022/11/19 15:23:49;;;;;;;5.20;2.63;;;7.60;93.50;;;;;;10313338;28;20381;-61
2022/11/19 15:29:07;;;;;;;6.70;2.50;;;7.30;93.60;;;;;;10359468;28;20201;-69
2022/11/19 15:34:23;;;;;;;5.25;2.90;;;7.50;93.80;;;;;;10337026;28;20033;-60
2022/11/19 15:39:48;;;;;;;5.43;2.05;;;7.80;93.90;;;;;;10364588;28;20474;-59
2022/11/19 15:45:03;;;;;;;5.07;2.70;;;7.30;93.80;;;;;;10341974;28;20141;-60
2022/11/19 15:50:12;;;;;;;8.27;2.92;;;7.40;94.00;;;;;;10354719;28;20882;-60
2022/11/19 15:55:19;;;;;;;5.00;2.92;;;7.00;93.90;;;;;;10358086;28;20047;-60
2022/11/19 16:00:21;;;;;;;11.43;2.65;;;6.30;94.00;;;;;;10365313;28;20032;-61
2022/11/19 16:05:28;;;;;;;8.95;3.40;;;7.00;94.20;;;;;;10345149;28;20027;-60
2022/11/19 16:10:32;;;;;;;7.18;2.95;;;7.00;94.20;;;;;;10387018;28;20449;-61
2022/11/19 16:20:52;;;;;;;6.43;2.50;;;7.10;94.50;;;;;;10441998;28;20334;-60
2022/11/19 16:25:53;;;;;;;4.13;2.20;;;7.10;94.20;;;;;;10441488;28;20021;-60
2022/11/19 16:31:04;;;;;;;5.60;3.00;;;7.10;94.20;;;;;;10431230;28;20033;-60
2022/11/19 16:36:17;;;;;;;5.82;2.95;;;7.10;94.10;;;;;;10439818;28;20068;-61
2022/11/19 16:46:40;;;;;;;7.13;3.70;;;7.00;94.20;;;;;;10438308;28;20025;-62
2022/11/19 16:51:52;;;;;;;7.82;3.83;;;7.30;94.20;;;;;;10444605;28;20021;-67
2022/11/19 16:56:53;;;;;;;6.80;3.50;;;7.00;94.20;;;;;;10439287;28;20369;-61
2022/11/19 17:01:56;;;;;;;6.60;3.40;;;7.10;94.20;;;;;;10428276;28;20049;-62
2022/11/19 17:06:58;;;;;;;7.68;3.90;;;6.90;94.20;;;;;;10435658;28;20025;-60
2022/11/19 17:12:17;;;;;;;8.18;3.60;;;6.90;94.20;;;;;;10446121;28;20040;-60
2022/11/19 17:17:25;;;;;;;5.85;3.45;;;6.90;94.20;;;;;;10437694;28;20013;-60
2022/11/19 17:22:31;;;;;;;8.48;4.05;;;6.90;94.20;;;;;;10442908;28;20052;-61
2022/11/19 17:27:36;;;;;;;8.80;3.60;;;6.90;94.30;;;;;;10440233;28;20496;-60
2022/11/19 17:32:44;;;;;;;6.25;3.78;;;7.00;94.40;;;;;;10435033;28;20029;-60
2022/11/19 17:37:45;;;;;;;11.38;4.68;;;7.00;94.50;;;;;;10429628;28;20029;-61
2022/11/19 17:48:19;;;;;;;7.10;3.95;;;7.00;94.60;;;;;;10446091;28;20033;-61
2022/11/19 17:53:21;;;;;;;13.27;4.30;;;7.30;94.90;;;;;;10426636;28;20028;-61
2022/11/19 17:58:22;;;;;;;7.82;4.03;;;7.30;94.80;;;;;;10427350;28;20100;-61
2022/11/19 18:03:22;;;;;;;8.30;4.30;;;6.90;94.70;;;;;;10433525;28;20363;-61
2022/11/19 18:08:23;;;;;;;8.15;4.35;;;6.90;94.60;;;;;;10431805;28;20032;-61
2022/11/19 18:13:25;;;;;;;7.32;4.00;;;6.90;94.60;;;;;;10438338;28;20191;-61
2022/11/19 18:18:26;;;;;;;8.15;4.05;;;6.90;94.60;;;;;;10442800;28;20029;-62
2022/11/19 18:23:27;;;;;;;8.80;3.83;;;6.90;94.60;;;;;;10445905;28;20060;-61
2022/11/19 18:28:28;;;;;;;6.95;3.88;;;6.90;94.60;;;;;;10438833;28;20029;-60
2022/11/19 18:33:28;;;;;;;8.18;3.78;;;6.90;94.60;;;;;;10436530;28;20413;-61
2022/11/19 18:38:29;;;;;;;6.50;3.67;;;6.90;94.60;;;;;;10440873;28;20021;-61
2022/11/19 18:48:49;;;;;;;7.80;3.60;;;7.30;94.70;;;;;;10428872;28;20033;-61
2022/11/19 18:53:50;;;;;;;8.68;4.28;;;6.80;94.50;;;;;;10437273;28;20413;-60
2022/11/19 18:58:51;;;;;;;8.65;4.30;;;7.00;94.50;;;;;;10440585;28;20234;-61
2022/11/19 19:03:51;;;;;;;6.97;3.55;;;7.00;94.50;;;;;;10441157;28;20234;-61
2022/11/19 19:08:52;;;;;;;7.80;4.63;;;6.80;94.50;;;;;;10452023;28;20079;-61
2022/11/19 19:13:53;;;;;;;7.18;4.57;;;6.80;94.50;;;;;;10454623;28;20029;-61
2022/11/19 19:18:54;;;;;;;10.18;5.15;;;6.80;94.50;;;;;;10451013;28;20017;-62
2022/11/19 19:23:55;;;;;;;8.02;4.68;;;6.80;94.50;;;;;;10435256;28;20073;-61
2022/11/19 19:28:55;;;;;;;9.23;5.15;;;6.70;94.40;;;;;;10419181;28;20356;-61
2022/11/19 19:33:56;;;;;;;8.88;4.40;;;6.70;94.40;;;;;;10425490;28;20028;-62
2022/11/19 19:38:57;;;;;;;9.80;5.05;;;6.70;94.40;;;;;;10434444;28;20043;-61
2022/11/19 19:44:01;;;;;;;10.27;5.07;;;6.70;94.40;;;;;;10450307;28;20041;-63
2022/11/19 19:49:02;;;;;;;9.20;5.47;;;6.70;94.40;;;;;;10444050;28;20024;-61
2022/11/19 19:54:03;;;;;;;13.02;5.20;;;6.70;94.40;;;;;;10448515;28;20024;-61
2022/11/19 19:59:04;;;;;;;10.85;5.88;;;6.70;94.40;;;;;;10430793;28;20051;-61
2022/11/19 20:04:09;;;;;;;9.57;5.47;;;6.60;94.40;;;;;;10457024;28;20422;-61
2022/11/19 20:09:10;;;;;;;9.02;5.13;;;6.60;94.30;;;;;;10443009;28;20036;-61
2022/11/19 20:14:11;;;;;;;10.02;5.20;;;6.60;94.40;;;;;;10453891;28;20333;-61
2022/11/19 20:19:13;;;;;;;8.07;4.55;;;6.60;94.30;;;;;;10436698;28;20274;-61
2022/11/19 20:24:16;;;;;;;9.50;5.15;;;6.60;94.30;;;;;;10437733;28;20464;-63
2022/11/19 20:29:18;;;;;;;9.57;5.00;;;6.60;94.30;;;;;;10439764;28;20025;-64
2022/11/19 20:34:19;;;;;;;7.75;4.43;;;7.80;94.60;;;;;;10453568;28;20025;-61
2022/11/19 20:39:20;;;;;;;8.13;4.90;;;7.00;94.40;;;;;;10447606;28;20477;-61
2022/11/19 20:44:21;;;;;;;9.18;5.05;;;6.50;94.20;;;;;;10446487;28;20041;-61
2022/11/19 20:49:24;;;;;;;8.75;4.65;;;6.50;94.20;;;;;;10437411;28;20048;-60
2022/11/19 20:54:26;;;;;;;6.38;4.38;;;6.50;94.20;;;;;;10448031;28;20017;-60
2022/11/19 20:59:27;;;;;;;8.95;4.85;;;6.50;94.20;;;;;;10443230;28;20103;-60
2022/11/19 21:04:30;;;;;;;8.40;4.63;;;6.40;94.20;;;;;;10448871;28;20178;-61
2022/11/19 21:09:30;;;;;;;10.07;4.75;;;6.40;94.20;;;;;;10453319;28;20024;-61
2022/11/19 21:14:31;;;;;;;9.23;4.55;;;6.40;94.20;;;;;;10454704;28;20073;-61
2022/11/19 21:19:32;;;;;;;8.98;4.47;;;6.40;94.20;;;;;;10437887;28;20493;-61
2022/11/19 21:24:33;;;;;;;9.00;5.05;;;6.80;94.30;;;;;;10449520;28;20033;-61
2022/11/19 21:29:34;;;;;;;10.77;5.10;;;6.40;94.10;;;;;;10441683;28;20025;-61
2022/11/19 21:34:38;;;;;;;9.98;5.53;;;6.40;94.10;;;;;;10445748;28;20051;-61
2022/11/19 21:39:38;;;;;;;10.27;5.72;;;6.60;94.20;;;;;;10453034;28;20025;-64
2022/11/19 21:44:39;;;;;;;9.73;5.43;;;6.30;94.10;;;;;;10451696;28;20037;-61
2022/11/19 21:49:40;;;;;;;8.70;5.45;;;6.30;94.10;;;;;;10431521;28;20355;-60
2022/11/19 21:54:40;;;;;;;10.63;6.10;;;6.30;94.10;;;;;;10449590;28;20095;-60
2022/11/19 21:59:41;;;;;;;9.95;5.78;;;6.80;94.20;;;;;;10444647;28;20026;-61
2022/11/19 22:04:41;;;;;;;11.10;6.40;;;6.30;94.00;;;;;;10432459;28;20037;-61
2022/11/19 22:09:42;;;;;;;11.10;5.72;;;6.30;94.30;;;;;;10449100;28;20337;-61
2022/11/19 22:14:43;;;;;;;9.63;5.53;;;6.30;94.00;;;;;;10450660;28;20024;-61
2022/11/19 22:19:44;;;;;;;10.23;6.18;;;6.20;94.00;;;;;;10452377;28;20033;-61
2022/11/19 22:24:46;;;;;;;11.25;5.82;;;6.20;94.00;;;;;;10453166;28;20060;-60
2022/11/19 22:29:47;;;;;;;9.85;5.50;;;6.20;94.00;;;;;;10451131;28;20034;-60
2022/11/19 22:34:48;;;;;;;9.20;5.60;;;6.20;94.00;;;;;;10459277;28;20041;-61
2022/11/19 22:39:49;;;;;;;11.60;6.18;;;6.20;93.90;;;;;;10452530;28;20021;-61
2022/11/19 22:44:50;;;;;;;12.05;6.10;;;6.20;93.90;;;;;;10452397;28;20428;-60
2022/11/19 22:49:51;;;;;;;12.65;6.82;;;6.20;93.90;;;;;;10452252;28;20021;-61
2022/11/19 22:54:51;;;;;;;12.73;7.07;;;6.30;93.90;;;;;;10446926;28;20029;-61
2022/11/19 22:59:52;;;;;;;12.55;7.15;;;6.10;93.90;;;;;;10453145;28;20025;-61
2022/11/19 23:04:53;;;;;;;12.02;6.63;;;7.40;94.20;;;;;;10431028;28;20029;-60
2022/11/19 23:09:53;;;;;;;12.48;6.60;;;6.20;93.90;;;;;;10446716;28;20039;-61
2022/11/19 23:14:54;;;;;;;14.43;6.70;;;6.10;93.90;;;;;;10437323;28;20024;-61
2022/11/19 23:19:55;;;;;;;13.57;7.63;;;6.00;93.80;;;;;;10433927;28;20443;-60
2022/11/19 23:24:55;;;;;;;14.45;7.93;;;6.00;93.80;;;;;;10458340;28;20035;-61
2022/11/19 23:29:56;;;;;;;15.55;8.52;;;6.00;93.80;;;;;;10462501;28;20044;-61
2022/11/19 23:34:57;;;;;;;14.75;8.05;;;6.00;93.80;;;;;;10443483;28;20286;-61
2022/11/19 23:39:57;;;;;;;16.35;9.48;;;6.30;93.90;;;;;;10447259;28;20029;-61
2022/11/19 23:44:58;;;;;;;15.43;8.98;;;6.50;93.90;;;;;;10438251;28;20124;-62
2022/11/19 23:49:59;;;;;;;17.48;9.43;;;6.60;93.90;;;;;;10431504;28;20025;-61
2022/11/19 23:54:59;;;;;;;25.02;11.10;;;6.30;93.80;;;;;;10445052;28;20033;-61
